Time;durP1;ratioP1;P1;durP2;ratioP2;P2;SDS_P1;SDS_P2;PMS_P1;PMS_P2;Temp;Humidity;BMP_temperature;BMP_pressure;BME280_temperature;BME280_humidity;BME280_pressure;Samples;Min_cycle;Max_cycle;Signal;HPM_P1;HPM_P2
2023/04/26 00:00:54;;;;;;;7.07;3.42;;;5.70;97.80;;;;;;2093321;28;20039;-71
2023/04/26 00:01:56;;;;;;;6.60;3.90;;;5.60;98.10;;;;;;2093782;28;20032;-71
2023/04/26 00:02:58;;;;;;;8.98;3.65;;;5.60;97.90;;;;;;2090646;28;20047;-71
2023/04/26 00:03:59;;;;;;;5.55;3.10;;;5.60;98.10;;;;;;2091460;28;20036;-71
2023/04/26 00:05:02;;;;;;;6.95;3.05;;;5.60;98.30;;;;;;2092889;28;20036;-71
2023/04/26 00:06:07;;;;;;;7.70;3.00;;;5.60;98.20;;;;;;2092238;28;20035;-71
2023/04/26 00:07:08;;;;;;;6.80;3.30;;;5.50;98.30;;;;;;2093090;28;20021;-71
2023/04/26 00:08:08;;;;;;;7.82;3.65;;;5.50;98.20;;;;;;2096496;28;20064;-71
2023/04/26 00:09:09;;;;;;;6.80;3.15;;;5.50;98.40;;;;;;2093669;28;20037;-71
2023/04/26 00:10:10;;;;;;;7.00;3.60;;;5.50;98.80;;;;;;2091590;28;21149;-71
2023/04/26 00:11:10;;;;;;;8.98;3.70;;;5.50;98.70;;;;;;2092346;28;20035;-71
2023/04/26 00:12:11;;;;;;;7.18;3.58;;;5.50;98.70;;;;;;2092945;28;20560;-71
2023/04/26 00:13:11;;;;;;;10.02;3.78;;;5.50;98.90;;;;;;2094649;28;20036;-71
2023/04/26 00:14:12;;;;;;;6.72;3.78;;;5.50;99.50;;;;;;2091229;28;20044;-71
2023/04/26 00:15:13;;;;;;;7.70;3.95;;;5.50;99.70;;;;;;2091151;28;20028;-71
2023/04/26 00:16:13;;;;;;;7.68;3.45;;;5.40;99.90;;;;;;2094254;28;20025;-71
2023/04/26 00:17:14;;;;;;;8.38;3.47;;;5.40;99.90;;;;;;2093430;28;20046;-71
2023/04/26 00:18:16;;;;;;;7.28;3.45;;;5.40;99.90;;;;;;2092013;28;20023;-71
2023/04/26 00:19:17;;;;;;;10.05;3.53;;;5.40;99.90;;;;;;2092322;28;20032;-71
2023/04/26 00:20:17;;;;;;;7.88;3.55;;;5.40;99.90;;;;;;2091776;28;20036;-71
2023/04/26 00:21:18;;;;;;;8.75;3.40;;;5.40;99.90;;;;;;2092189;28;20381;-72
2023/04/26 00:22:19;;;;;;;8.95;3.75;;;5.40;99.90;;;;;;2093437;28;20078;-71
2023/04/26 00:23:19;;;;;;;6.90;3.65;;;5.40;99.90;;;;;;2090245;28;20025;-71
2023/04/26 00:24:20;;;;;;;9.85;3.72;;;5.40;99.90;;;;;;2094086;28;20067;-71
2023/04/26 00:25:20;;;;;;;7.78;3.67;;;5.30;99.90;;;;;;2093964;28;20118;-71
2023/04/26 00:26:21;;;;;;;7.43;3.40;;;5.30;99.90;;;;;;2094059;28;20071;-71
2023/04/26 00:27:22;;;;;;;5.60;3.22;;;5.40;99.90;;;;;;2095003;28;20139;-71
2023/04/26 00:28:22;;;;;;;9.35;3.40;;;5.30;99.90;;;;;;2095165;28;20388;-71
2023/04/26 00:29:23;;;;;;;8.07;3.92;;;5.30;99.90;;;;;;2098900;28;20048;-71
2023/04/26 00:30:23;;;;;;;9.88;4.25;;;5.30;99.90;;;;;;2097199;28;20024;-71
2023/04/26 00:31:24;;;;;;;8.00;3.40;;;5.30;99.90;;;;;;2094038;28;20144;-71
2023/04/26 00:32:24;;;;;;;5.50;3.20;;;5.20;99.90;;;;;;2092626;28;20029;-71
2023/04/26 00:33:25;;;;;;;7.75;3.50;;;5.30;99.90;;;;;;2092085;28;20025;-71
2023/04/26 00:34:34;;;;;;;6.60;3.30;;;5.20;99.90;;;;;;2090949;28;20372;-71
2023/04/26 00:35:36;;;;;;;8.15;3.95;;;5.20;99.90;;;;;;2090743;28;20607;-71
2023/04/26 00:36:37;;;;;;;10.35;3.63;;;5.20;99.90;;;;;;2090010;28;20021;-71
2023/04/26 00:37:38;;;;;;;8.77;3.72;;;5.20;99.90;;;;;;2091694;28;20088;-71
2023/04/26 00:38:38;;;;;;;5.90;3.13;;;5.10;99.90;;;;;;2090341;28;20103;-71
2023/04/26 00:39:39;;;;;;;7.90;3.65;;;5.10;99.90;;;;;;2091974;28;20111;-71
2023/04/26 00:40:39;;;;;;;8.23;3.80;;;5.10;99.90;;;;;;2090350;28;20024;-71
2023/04/26 00:41:40;;;;;;;7.90;4.05;;;5.10;99.90;;;;;;2094479;28;20028;-71
2023/04/26 00:42:41;;;;;;;6.55;3.75;;;5.10;99.90;;;;;;2090166;28;20028;-71
2023/04/26 00:43:41;;;;;;;8.35;4.07;;;5.10;99.90;;;;;;2090702;28;20024;-71
2023/04/26 00:44:42;;;;;;;7.47;3.50;;;5.10;99.90;;;;;;2094785;28;20025;-71
2023/04/26 00:45:42;;;;;;;10.93;3.67;;;5.00;99.90;;;;;;2087297;28;20611;-71
2023/04/26 00:46:43;;;;;;;10.77;4.60;;;5.00;99.90;;;;;;2091332;28;20081;-71
2023/04/26 00:47:44;;;;;;;6.90;4.10;;;5.00;99.90;;;;;;2091476;28;20081;-71
2023/04/26 00:48:45;;;;;;;9.02;3.95;;;5.00;99.90;;;;;;2092114;28;20093;-71
2023/04/26 00:49:46;;;;;;;9.90;4.72;;;5.00;99.90;;;;;;2092498;28;20031;-71
2023/04/26 00:50:47;;;;;;;5.35;3.55;;;5.00;99.90;;;;;;2092523;28;20040;-71
2023/04/26 00:51:48;;;;;;;9.70;4.05;;;5.00;99.90;;;;;;2092136;28;20439;-71
2023/04/26 00:52:49;;;;;;;9.35;4.03;;;5.00;99.90;;;;;;2092969;28;20032;-71
2023/04/26 00:53:49;;;;;;;7.70;4.18;;;5.00;99.90;;;;;;2092037;28;20065;-71
2023/04/26 00:54:50;;;;;;;6.03;3.42;;;5.00;99.90;;;;;;2091323;28;20032;-71
2023/04/26 00:55:51;;;;;;;5.05;3.72;;;4.90;99.90;;;;;;2094412;28;20016;-71
2023/04/26 00:56:52;;;;;;;8.27;3.53;;;5.00;99.90;;;;;;2093345;28;20029;-71
2023/04/26 00:57:52;;;;;;;12.25;4.20;;;4.90;99.90;;;;;;2093882;28;20020;-71
2023/04/26 00:58:53;;;;;;;8.80;3.75;;;4.90;99.90;;;;;;2093160;28;20396;-71
2023/04/26 00:59:53;;;;;;;6.82;3.63;;;4.90;99.90;;;;;;2092359;28;20048;-71
2023/04/26 01:00:54;;;;;;;6.90;3.95;;;4.90;99.90;;;;;;2093579;28;20085;-71
2023/04/26 01:01:56;;;;;;;7.75;4.00;;;4.90;99.90;;;;;;2090894;28;20478;-71
2023/04/26 01:02:56;;;;;;;8.15;3.80;;;4.90;99.90;;;;;;2094017;28;20036;-71
2023/04/26 01:03:57;;;;;;;10.70;4.65;;;4.80;99.90;;;;;;2093429;28;20027;-71
2023/04/26 01:04:58;;;;;;;7.60;4.40;;;4.80;99.90;;;;;;2094595;28;20417;-71
2023/04/26 01:05:58;;;;;;;7.32;3.60;;;4.80;99.90;;;;;;2094812;28;20521;-71
2023/04/26 01:07:00;;;;;;;8.82;4.60;;;4.80;99.90;;;;;;2092512;28;20035;-71
2023/04/26 01:08:03;;;;;;;8.18;4.00;;;4.80;99.90;;;;;;2092149;28;20043;-71
2023/04/26 01:09:09;;;;;;;8.52;5.15;;;4.80;99.90;;;;;;2092267;28;20021;-71
2023/04/26 01:10:10;;;;;;;7.13;3.83;;;4.80;99.90;;;;;;2091578;28;20082;-71
2023/04/26 01:11:11;;;;;;;8.13;4.55;;;4.80;99.90;;;;;;2092689;28;20020;-70
2023/04/26 01:12:12;;;;;;;7.93;4.60;;;4.70;99.90;;;;;;2093529;28;20043;-71
2023/04/26 01:13:13;;;;;;;8.48;4.00;;;4.70;99.90;;;;;;2096657;28;20556;-70
2023/04/26 01:14:15;;;;;;;8.43;4.20;;;4.70;99.90;;;;;;2093307;28;20020;-71
2023/04/26 01:15:16;;;;;;;11.20;4.45;;;4.70;99.90;;;;;;2093444;28;20020;-71
2023/04/26 01:16:18;;;;;;;8.10;4.63;;;4.70;99.90;;;;;;2093284;28;20056;-71
2023/04/26 01:17:18;;;;;;;8.98;5.10;;;4.70;99.90;;;;;;2093507;28;20020;-71
2023/04/26 01:18:19;;;;;;;9.60;4.20;;;4.70;99.90;;;;;;2092037;28;20048;-71
2023/04/26 01:19:20;;;;;;;8.25;4.25;;;4.70;99.90;;;;;;2092072;28;20028;-71
2023/04/26 01:20:21;;;;;;;7.03;4.38;;;4.60;99.90;;;;;;2091385;28;20037;-71
2023/04/26 01:21:24;;;;;;;9.25;4.65;;;4.70;99.90;;;;;;2092302;28;20032;-71
2023/04/26 01:22:25;;;;;;;10.40;4.53;;;4.60;99.90;;;;;;2090134;28;20064;-71
2023/04/26 01:23:25;;;;;;;9.50;4.32;;;4.60;99.90;;;;;;2091894;28;20039;-71
2023/04/26 01:24:26;;;;;;;8.43;5.47;;;4.60;99.90;;;;;;2091880;28;20030;-71
2023/04/26 01:25:27;;;;;;;7.43;4.43;;;4.60;99.90;;;;;;2091683;28;20029;-71
2023/04/26 01:26:27;;;;;;;10.60;4.45;;;4.60;99.90;;;;;;2090907;28;20108;-71
2023/04/26 01:27:28;;;;;;;6.43;4.35;;;4.60;99.90;;;;;;2093711;28;20071;-71
2023/04/26 01:28:28;;;;;;;11.90;4.82;;;4.60;99.90;;;;;;2093485;28;20024;-71
2023/04/26 01:29:30;;;;;;;10.90;4.80;;;4.60;99.90;;;;;;2091251;28;20056;-71
2023/04/26 01:30:30;;;;;;;12.05;5.00;;;4.60;99.90;;;;;;2091290;28;20372;-71
2023/04/26 01:31:31;;;;;;;7.43;4.55;;;4.60;99.90;;;;;;2088724;28;20013;-71
2023/04/26 01:32:31;;;;;;;10.90;5.18;;;4.50;99.90;;;;;;2088665;28;20028;-71
2023/04/26 01:33:32;;;;;;;7.85;4.32;;;4.50;99.90;;;;;;2090109;28;20024;-71
2023/04/26 01:34:33;;;;;;;8.93;4.82;;;4.50;99.90;;;;;;2091350;28;20104;-71
2023/04/26 01:35:33;;;;;;;10.90;5.93;;;4.50;99.90;;;;;;2091058;28;20020;-71
2023/04/26 01:36:34;;;;;;;10.80;4.15;;;4.50;99.90;;;;;;2089222;28;20524;-71
2023/04/26 01:37:35;;;;;;;11.80;5.25;;;4.50;99.90;;;;;;2092117;28;20099;-71
2023/04/26 01:38:36;;;;;;;8.82;4.65;;;4.50;99.90;;;;;;2093829;28;20116;-71
2023/04/26 01:39:36;;;;;;;7.03;4.47;;;4.40;99.90;;;;;;2092874;28;20055;-71
2023/04/26 01:40:37;;;;;;;10.63;4.95;;;4.40;99.90;;;;;;2090765;28;20435;-71
2023/04/26 01:41:37;;;;;;;9.60;4.70;;;4.40;99.90;;;;;;2092029;28;20013;-71
2023/04/26 01:42:38;;;;;;;7.57;4.88;;;4.40;99.90;;;;;;2092643;28;20028;-71
2023/04/26 01:43:38;;;;;;;8.82;4.47;;;4.40;99.90;;;;;;2092070;28;20028;-71
2023/04/26 01:44:39;;;;;;;13.05;5.45;;;4.40;99.90;;;;;;2094378;28;20077;-71
2023/04/26 01:45:40;;;;;;;8.60;4.18;;;4.40;99.90;;;;;;2094001;28;20498;-71
2023/04/26 01:46:40;;;;;;;9.95;4.30;;;4.40;99.90;;;;;;2092826;28;20033;-71
2023/04/26 01:47:41;;;;;;;8.57;4.18;;;4.40;99.90;;;;;;2091240;28;20489;-71
2023/04/26 01:48:41;;;;;;;6.70;4.20;;;4.40;99.90;;;;;;2094224;28;20024;-71
2023/04/26 01:49:42;;;;;;;7.97;4.78;;;4.40;99.90;;;;;;2093605;28;20074;-71
2023/04/26 01:50:42;;;;;;;9.80;4.80;;;4.30;99.90;;;;;;2092037;28;20032;-71
2023/04/26 01:51:43;;;;;;;9.90;5.00;;;4.30;99.90;;;;;;2090340;28;20060;-71
2023/04/26 01:52:43;;;;;;;9.00;5.28;;;4.30;99.90;;;;;;2093525;28;20017;-71
2023/04/26 01:53:44;;;;;;;10.18;5.03;;;4.30;99.90;;;;;;2093471;28;20036;-71
2023/04/26 01:54:45;;;;;;;6.50;4.28;;;4.30;99.90;;;;;;2090969;28;20687;-71
2023/04/26 01:55:45;;;;;;;7.80;4.85;;;4.30;99.90;;;;;;2092722;28;20027;-71
2023/04/26 01:56:46;;;;;;;8.57;5.25;;;4.30;99.90;;;;;;2092829;28;20025;-71
2023/04/26 01:57:46;;;;;;;7.95;4.75;;;4.30;99.90;;;;;;2090246;28;20041;-71
2023/04/26 01:58:47;;;;;;;12.13;5.07;;;4.30;99.90;;;;;;2091566;28;20731;-71
2023/04/26 01:59:47;;;;;;;10.93;5.65;;;4.30;99.90;;;;;;2090725;28;20554;-71
2023/04/26 02:00:48;;;;;;;10.13;4.78;;;4.20;99.90;;;;;;2093763;28;20525;-71
2023/04/26 02:01:48;;;;;;;11.13;5.22;;;4.20;99.90;;;;;;2087884;28;20740;-71
2023/04/26 02:02:49;;;;;;;8.90;5.10;;;4.20;99.90;;;;;;2091332;28;20472;-71
2023/04/26 02:03:50;;;;;;;8.00;4.28;;;4.20;99.90;;;;;;2090533;28;20099;-71
2023/04/26 02:04:50;;;;;;;11.63;5.63;;;4.20;99.90;;;;;;2093469;28;20104;-71
2023/04/26 02:05:51;;;;;;;8.88;5.35;;;4.20;99.90;;;;;;2093449;28;20081;-71
2023/04/26 02:06:51;;;;;;;6.85;4.65;;;4.20;99.90;;;;;;2091578;28;20041;-71
2023/04/26 02:07:52;;;;;;;12.18;5.03;;;4.20;99.90;;;;;;2092759;28;20029;-71
2023/04/26 02:08:53;;;;;;;9.38;4.68;;;4.20;99.90;;;;;;2094269;28;20081;-71
2023/04/26 02:09:53;;;;;;;7.68;4.80;;;4.20;99.90;;;;;;2090248;28;20158;-71
2023/04/26 02:10:54;;;;;;;10.80;5.13;;;4.20;99.90;;;;;;2093296;28;20075;-71
2023/04/26 02:11:55;;;;;;;9.13;5.45;;;4.10;99.90;;;;;;2091582;28;20029;-71
2023/04/26 02:12:55;;;;;;;10.48;5.60;;;4.10;99.90;;;;;;2091558;28;20033;-71
2023/04/26 02:13:56;;;;;;;8.55;5.05;;;4.10;99.90;;;;;;2089874;28;20021;-71
2023/04/26 02:14:56;;;;;;;8.10;5.40;;;4.10;99.90;;;;;;2092820;28;20071;-71
2023/04/26 02:15:58;;;;;;;9.82;5.40;;;4.10;99.90;;;;;;2091099;28;20029;-71
2023/04/26 02:16:58;;;;;;;8.55;5.28;;;4.10;99.90;;;;;;2091079;28;20016;-71
2023/04/26 02:17:59;;;;;;;11.88;5.03;;;4.10;99.90;;;;;;2090871;28;20025;-71
2023/04/26 02:18:59;;;;;;;7.82;4.70;;;4.10;99.90;;;;;;2091763;28;20028;-71
2023/04/26 02:20:00;;;;;;;11.43;5.38;;;4.10;99.90;;;;;;2090997;28;20503;-71
2023/04/26 02:21:00;;;;;;;6.47;4.72;;;4.10;99.90;;;;;;2090916;28;20032;-71
2023/04/26 02:22:01;;;;;;;10.80;5.53;;;4.10;99.90;;;;;;2091200;28;20036;-71
2023/04/26 02:23:01;;;;;;;10.35;6.20;;;4.10;99.90;;;;;;2094108;28;20487;-71
2023/04/26 02:24:02;;;;;;;9.52;5.28;;;4.00;99.90;;;;;;2094508;28;20027;-71
2023/04/26 02:25:04;;;;;;;10.77;5.50;;;4.00;99.90;;;;;;2092379;28;20086;-71
2023/04/26 02:26:04;;;;;;;12.50;6.00;;;4.00;99.90;;;;;;2091067;28;20116;-71
2023/04/26 02:27:05;;;;;;;9.45;5.25;;;4.00;99.90;;;;;;2090100;28;20078;-71
2023/04/26 02:28:05;;;;;;;11.40;5.45;;;4.00;99.90;;;;;;2089714;28;20025;-71
2023/04/26 02:29:06;;;;;;;11.00;6.00;;;4.00;99.90;;;;;;2091333;28;20028;-71
2023/04/26 02:30:07;;;;;;;8.98;5.40;;;4.00;99.90;;;;;;2091534;28;20033;-71
2023/04/26 02:31:08;;;;;;;9.70;5.60;;;4.00;99.90;;;;;;2088793;28;20172;-71
2023/04/26 02:32:08;;;;;;;9.80;6.30;;;4.00;99.90;;;;;;2092829;28;20086;-71
2023/04/26 02:33:09;;;;;;;7.38;5.47;;;4.00;99.90;;;;;;2092653;28;20048;-71
2023/04/26 02:34:09;;;;;;;9.43;5.63;;;4.00;99.90;;;;;;2091512;28;20571;-71
2023/04/26 02:35:10;;;;;;;13.38;5.85;;;4.00;99.90;;;;;;2091137;28;20040;-71
2023/04/26 02:36:10;;;;;;;10.07;6.00;;;4.00;99.90;;;;;;2092927;28;20031;-71
2023/04/26 02:37:11;;;;;;;11.65;4.93;;;3.90;99.90;;;;;;2092316;28;20028;-71
2023/04/26 02:38:11;;;;;;;11.82;5.25;;;3.90;99.90;;;;;;2091311;28;20153;-71
2023/04/26 02:39:12;;;;;;;9.63;5.35;;;3.90;99.90;;;;;;2093038;28;20044;-71
2023/04/26 02:40:12;;;;;;;10.35;5.05;;;3.90;99.90;;;;;;2092161;28;20108;-71
2023/04/26 02:41:13;;;;;;;7.53;5.20;;;3.90;99.90;;;;;;2090038;28;20029;-71
2023/04/26 02:42:13;;;;;;;9.10;5.50;;;3.90;99.90;;;;;;2090282;28;20123;-71
2023/04/26 02:43:14;;;;;;;6.82;4.43;;;3.90;99.90;;;;;;2085806;28;20041;-71
2023/04/26 02:44:14;;;;;;;6.63;4.32;;;3.90;99.90;;;;;;2093518;28;20047;-71
2023/04/26 02:45:15;;;;;;;7.45;4.75;;;3.90;99.90;;;;;;2096180;28;20024;-71
2023/04/26 02:46:16;;;;;;;10.65;5.32;;;3.90;99.90;;;;;;2094195;28;20028;-71
2023/04/26 02:47:16;;;;;;;11.32;6.10;;;3.90;99.90;;;;;;2093227;28;20071;-71
2023/04/26 02:48:17;;;;;;;7.80;4.78;;;3.90;99.90;;;;;;2094441;28;20021;-71
2023/04/26 02:49:18;;;;;;;8.43;5.05;;;3.90;99.90;;;;;;2092851;28;20031;-71
2023/04/26 02:50:18;;;;;;;10.32;5.63;;;3.90;99.90;;;;;;2091001;28;20159;-71
2023/04/26 02:51:19;;;;;;;10.68;6.22;;;3.80;99.90;;;;;;2090338;28;20025;-71
2023/04/26 02:52:19;;;;;;;11.55;5.93;;;3.80;99.90;;;;;;2093070;28;20105;-71
2023/04/26 02:53:20;;;;;;;7.90;4.60;;;3.80;99.90;;;;;;2094995;28;20037;-71
2023/04/26 02:54:21;;;;;;;8.68;5.18;;;3.80;99.90;;;;;;2092130;28;20021;-71
2023/04/26 02:55:22;;;;;;;10.77;6.18;;;3.80;99.90;;;;;;2093312;28;20048;-71
2023/04/26 02:56:22;;;;;;;7.55;5.45;;;3.80;99.90;;;;;;2090943;28;20112;-71
2023/04/26 02:57:23;;;;;;;7.30;5.00;;;3.80;99.90;;;;;;2092984;28;20025;-71
2023/04/26 02:58:23;;;;;;;7.32;5.20;;;3.80;99.90;;;;;;2093336;28;20100;-71
2023/04/26 02:59:24;;;;;;;13.35;5.63;;;3.80;99.90;;;;;;2091657;28;20036;-71
2023/04/26 03:00:25;;;;;;;7.05;4.90;;;3.80;99.90;;;;;;2091644;28;20827;-71
2023/04/26 03:01:26;;;;;;;7.18;5.20;;;3.80;99.90;;;;;;2093059;28;20028;-73
2023/04/26 03:02:26;;;;;;;7.57;5.15;;;3.80;99.90;;;;;;2091252;28;21989;-71
2023/04/26 03:03:27;;;;;;;10.93;5.60;;;3.80;99.90;;;;;;2094669;28;20553;-71
2023/04/26 03:04:30;;;;;;;9.45;4.45;;;3.80;99.90;;;;;;2092382;28;20043;-71
2023/04/26 03:05:30;;;;;;;9.95;5.80;;;3.80;99.90;;;;;;2093506;28;20032;-71
2023/04/26 03:06:32;;;;;;;11.35;6.20;;;3.70;99.90;;;;;;2092801;28;20031;-71
2023/04/26 03:07:33;;;;;;;10.13;5.38;;;3.70;99.90;;;;;;2093812;28;20038;-71
2023/04/26 03:08:35;;;;;;;10.55;5.45;;;3.70;99.90;;;;;;2092341;28;20020;-71
2023/04/26 03:09:37;;;;;;;8.82;5.40;;;3.70;99.90;;;;;;2094569;28;20013;-71
2023/04/26 03:10:38;;;;;;;10.23;5.78;;;3.70;99.90;;;;;;2093375;28;20051;-71
2023/04/26 03:11:38;;;;;;;8.35;5.13;;;3.70;99.90;;;;;;2092780;28;20029;-71
2023/04/26 03:12:39;;;;;;;7.40;5.20;;;3.70;99.90;;;;;;2095558;28;20123;-71
2023/04/26 03:13:40;;;;;;;10.50;5.78;;;3.70;99.90;;;;;;2095440;28;20108;-71
2023/04/26 03:14:40;;;;;;;8.80;6.05;;;3.70;99.90;;;;;;2094336;28;20016;-71
2023/04/26 03:15:45;;;;;;;8.00;5.75;;;3.70;99.90;;;;;;2087870;28;20631;-71
2023/04/26 03:16:47;;;;;;;8.73;5.40;;;3.70;99.90;;;;;;2093117;28;20029;-71
2023/04/26 03:17:47;;;;;;;8.38;5.35;;;3.70;99.90;;;;;;2093124;28;20070;-71
2023/04/26 03:18:48;;;;;;;10.35;5.43;;;3.70;99.90;;;;;;2094824;28;20071;-71
2023/04/26 03:19:48;;;;;;;9.82;6.22;;;3.70;99.90;;;;;;2093690;28;20590;-71
2023/04/26 03:20:49;;;;;;;9.25;5.40;;;3.70;99.90;;;;;;2095954;28;20036;-71
2023/04/26 03:21:50;;;;;;;11.10;6.30;;;3.60;99.90;;;;;;2093300;28;20770;-71
2023/04/26 03:22:50;;;;;;;9.60;6.07;;;3.60;99.90;;;;;;2092055;28;20056;-71
2023/04/26 03:23:51;;;;;;;8.07;5.28;;;3.60;99.90;;;;;;2092674;28;20752;-71
2023/04/26 03:24:52;;;;;;;10.90;6.35;;;3.60;99.90;;;;;;2093308;28;20562;-71
2023/04/26 03:25:52;;;;;;;8.25;6.10;;;3.60;99.90;;;;;;2093383;28;20047;-71
2023/04/26 03:26:53;;;;;;;10.00;6.00;;;3.60;99.90;;;;;;2094275;28;20036;-71
2023/04/26 03:27:55;;;;;;;12.20;6.97;;;3.60;99.90;;;;;;2094093;28;20099;-71
2023/04/26 03:28:55;;;;;;;9.80;4.97;;;3.60;99.90;;;;;;2093346;28;20031;-71
2023/04/26 03:29:56;;;;;;;10.88;5.78;;;3.60;99.90;;;;;;2092319;28;20033;-71
2023/04/26 03:30:57;;;;;;;11.25;6.18;;;3.60;99.90;;;;;;2091518;28;21060;-71
2023/04/26 03:31:57;;;;;;;10.68;6.43;;;3.60;99.90;;;;;;2094776;28;20031;-71
2023/04/26 03:32:58;;;;;;;8.73;5.88;;;3.60;99.90;;;;;;2092288;28;20029;-71
2023/04/26 03:33:58;;;;;;;9.52;5.15;;;3.60;99.90;;;;;;2093642;28;20052;-71
2023/04/26 03:34:59;;;;;;;8.15;6.00;;;3.60;99.90;;;;;;2093988;28;20350;-71
2023/04/26 03:36:00;;;;;;;9.98;6.00;;;3.60;99.90;;;;;;2092210;28;20059;-71
2023/04/26 03:37:02;;;;;;;9.70;6.00;;;3.60;99.90;;;;;;2095010;28;20115;-71
2023/04/26 03:38:02;;;;;;;9.10;5.72;;;3.60;99.90;;;;;;2095061;28;20013;-71
2023/04/26 03:39:04;;;;;;;6.78;5.72;;;3.60;99.90;;;;;;2091284;28;20103;-71
2023/04/26 03:40:08;;;;;;;8.30;5.95;;;3.60;99.90;;;;;;2091060;28;20024;-71
2023/04/26 03:41:09;;;;;;;8.93;5.85;;;3.50;99.90;;;;;;2094577;28;20024;-71
2023/04/26 03:42:09;;;;;;;11.23;6.13;;;3.50;99.90;;;;;;2092001;28;20488;-71
2023/04/26 03:43:10;;;;;;;8.38;6.38;;;3.50;99.90;;;;;;2091392;28;20036;-71
2023/04/26 03:44:11;;;;;;;10.43;6.20;;;3.50;99.90;;;;;;2094208;28;20165;-71
2023/04/26 03:45:11;;;;;;;7.70;5.70;;;3.50;99.90;;;;;;2097446;28;20029;-71
2023/04/26 03:46:12;;;;;;;10.13;6.90;;;3.50;99.90;;;;;;2091604;28;20020;-71
2023/04/26 03:47:14;;;;;;;11.77;6.82;;;3.50;99.90;;;;;;2092312;28;20025;-71
2023/04/26 03:48:16;;;;;;;13.52;7.05;;;3.50;99.90;;;;;;2094796;28;20021;-71
2023/04/26 03:49:16;;;;;;;7.38;5.90;;;3.50;99.90;;;;;;2093425;28;20485;-71
2023/04/26 03:50:17;;;;;;;8.40;6.55;;;3.50;99.90;;;;;;2091323;28;20498;-71
2023/04/26 03:51:18;;;;;;;11.07;6.65;;;3.50;99.90;;;;;;2092198;28;20060;-71
2023/04/26 03:52:18;;;;;;;13.70;6.80;;;3.50;99.90;;;;;;2093810;28;20040;-71
2023/04/26 03:53:19;;;;;;;11.15;6.78;;;3.50;99.90;;;;;;2094838;28;20055;-71
2023/04/26 03:54:19;;;;;;;9.55;6.72;;;3.50;99.90;;;;;;2092557;28;20033;-71
2023/04/26 03:55:20;;;;;;;9.02;6.25;;;3.50;99.90;;;;;;2091357;28;20021;-71
2023/04/26 03:56:20;;;;;;;9.93;6.68;;;3.40;99.90;;;;;;2093800;28;20052;-71
2023/04/26 03:57:21;;;;;;;8.38;6.68;;;3.40;99.90;;;;;;2091623;28;20056;-71
2023/04/26 03:58:21;;;;;;;8.88;7.25;;;3.40;99.90;;;;;;2089242;28;20021;-71
2023/04/26 03:59:22;;;;;;;11.50;7.03;;;3.40;99.90;;;;;;2093160;28;20094;-71
2023/04/26 04:00:23;;;;;;;7.88;6.07;;;3.40;99.90;;;;;;2092999;28;20557;-71
2023/04/26 04:01:24;;;;;;;9.10;6.53;;;3.40;99.90;;;;;;2094466;28;20021;-71
2023/04/26 04:02:25;;;;;;;13.30;6.82;;;3.40;99.90;;;;;;2092143;28;20032;-71
2023/04/26 04:03:25;;;;;;;9.32;7.45;;;3.40;99.90;;;;;;2091530;28;20028;-71
2023/04/26 04:04:26;;;;;;;11.13;6.85;;;3.40;99.90;;;;;;2093709;28;20029;-71
2023/04/26 04:05:26;;;;;;;11.70;7.00;;;3.40;99.90;;;;;;2092833;28;20089;-71
2023/04/26 04:06:27;;;;;;;11.45;7.03;;;3.40;99.90;;;;;;2094148;28;20107;-71
2023/04/26 04:07:27;;;;;;;15.20;7.97;;;3.40;99.90;;;;;;2094133;28;20029;-71
2023/04/26 04:08:28;;;;;;;11.20;7.95;;;3.40;99.90;;;;;;2092668;28;20118;-71
2023/04/26 04:09:28;;;;;;;8.38;6.38;;;3.40;99.90;;;;;;2094541;28;20033;-71
2023/04/26 04:10:29;;;;;;;11.05;7.07;;;3.40;99.90;;;;;;2085842;28;20025;-71
2023/04/26 04:11:29;;;;;;;10.77;7.10;;;3.40;99.90;;;;;;2095508;28;20020;-71
2023/04/26 04:12:30;;;;;;;10.02;7.10;;;3.40;99.90;;;;;;2091734;28;20032;-71
2023/04/26 04:13:31;;;;;;;8.73;6.60;;;3.40;99.90;;;;;;2090988;28;20108;-71
2023/04/26 04:14:31;;;;;;;10.65;6.50;;;3.40;99.90;;;;;;2092740;28;20020;-71
2023/04/26 04:15:32;;;;;;;9.95;6.68;;;3.40;99.90;;;;;;2090989;28;20090;-71
2023/04/26 04:16:32;;;;;;;14.85;7.65;;;3.40;99.90;;;;;;2091795;28;20036;-73
2023/04/26 04:17:33;;;;;;;14.50;8.30;;;3.40;99.90;;;;;;2091615;28;20029;-71
2023/04/26 04:18:33;;;;;;;9.50;7.18;;;3.40;99.90;;;;;;2091503;28;20044;-71
2023/04/26 04:19:34;;;;;;;10.68;6.93;;;3.40;99.90;;;;;;2091480;28;20100;-71
2023/04/26 04:20:34;;;;;;;11.23;6.95;;;3.40;99.90;;;;;;2094796;28;20028;-71
2023/04/26 04:21:35;;;;;;;11.80;7.03;;;3.30;99.90;;;;;;2094568;28;20021;-71
2023/04/26 04:22:35;;;;;;;9.45;6.65;;;3.40;99.90;;;;;;2093277;28;20024;-71
2023/04/26 04:23:36;;;;;;;12.02;7.45;;;3.40;99.90;;;;;;2097492;28;20071;-71
2023/04/26 04:24:37;;;;;;;14.88;8.75;;;3.30;99.90;;;;;;2095014;28;20098;-71
2023/04/26 04:25:38;;;;;;;12.55;8.30;;;3.30;99.90;;;;;;2094592;28;20680;-71
2023/04/26 04:26:38;;;;;;;11.65;7.35;;;3.40;99.90;;;;;;2092410;28;20090;-71
2023/04/26 04:27:41;;;;;;;14.98;8.35;;;3.40;99.90;;;;;;2092579;28;20032;-71
2023/04/26 04:28:41;;;;;;;9.50;8.35;;;3.30;99.90;;;;;;2093230;28;20032;-71
2023/04/26 04:29:42;;;;;;;10.35;7.38;;;3.30;99.90;;;;;;2091972;28;20025;-71
2023/04/26 04:30:43;;;;;;;11.35;7.90;;;3.30;99.90;;;;;;2084367;28;20056;-71
2023/04/26 04:31:43;;;;;;;16.33;8.60;;;3.30;99.90;;;;;;2093135;28;20016;-71
2023/04/26 04:32:45;;;;;;;10.90;7.88;;;3.30;99.90;;;;;;2092083;28;20090;-71
2023/04/26 04:33:46;;;;;;;12.90;9.20;;;3.30;99.90;;;;;;2093883;28;20024;-71
2023/04/26 04:34:46;;;;;;;14.13;8.85;;;3.30;99.90;;;;;;2093289;28;20024;-71
2023/04/26 04:35:47;;;;;;;11.48;7.70;;;3.30;99.90;;;;;;2094063;28;21495;-71
2023/04/26 04:36:47;;;;;;;12.30;7.15;;;3.30;99.90;;;;;;2093917;28;20025;-71
2023/04/26 04:37:49;;;;;;;11.52;8.07;;;3.30;99.90;;;;;;2092066;28;20438;-71
2023/04/26 04:38:52;;;;;;;12.68;8.43;;;3.30;99.90;;;;;;2092966;28;20044;-71
2023/04/26 04:39:52;;;;;;;12.75;7.18;;;3.30;99.90;;;;;;2091731;28;20072;-71
2023/04/26 04:40:53;;;;;;;11.23;8.43;;;3.30;99.90;;;;;;2092169;28;20032;-71
2023/04/26 04:41:53;;;;;;;11.35;7.75;;;3.30;99.90;;;;;;2093064;28;20519;-71
2023/04/26 04:42:54;;;;;;;11.35;8.80;;;3.30;99.90;;;;;;2093810;28;20032;-71
2023/04/26 04:43:55;;;;;;;12.75;8.38;;;3.30;99.90;;;;;;2091196;28;20116;-71
2023/04/26 04:44:56;;;;;;;15.85;9.98;;;3.30;99.90;;;;;;2091610;28;20016;-71
2023/04/26 04:45:57;;;;;;;11.40;8.50;;;3.30;99.90;;;;;;2092368;28;20246;-71
2023/04/26 04:46:57;;;;;;;14.85;9.35;;;3.40;99.90;;;;;;2091337;28;20090;-71
2023/04/26 04:47:58;;;;;;;14.70;9.18;;;3.40;99.90;;;;;;2091185;28;20059;-71
2023/04/26 04:48:58;;;;;;;14.18;9.43;;;3.40;99.90;;;;;;2092645;28;20035;-71
2023/04/26 04:49:59;;;;;;;10.93;8.38;;;3.40;99.90;;;;;;2091961;28;20095;-71
2023/04/26 04:51:01;;;;;;;11.35;8.90;;;3.40;99.90;;;;;;2093545;28;20035;-71
2023/04/26 04:52:01;;;;;;;10.60;7.90;;;3.40;99.90;;;;;;2093304;28;20020;-71
2023/04/26 04:53:02;;;;;;;14.63;10.27;;;3.40;99.90;;;;;;2093321;28;20036;-71
2023/04/26 04:54:14;;;;;;;15.30;10.07;;;3.40;99.90;;;;;;2093421;28;20040;-71
2023/04/26 04:55:15;;;;;;;13.57;9.88;;;3.40;99.90;;;;;;2093665;28;20070;-71
2023/04/26 04:56:17;;;;;;;13.45;10.35;;;3.40;99.90;;;;;;2091747;28;20063;-71
2023/04/26 04:57:17;;;;;;;15.43;10.50;;;3.40;99.90;;;;;;2092723;28;20452;-71
2023/04/26 04:58:18;;;;;;;12.95;9.45;;;3.40;99.90;;;;;;2092481;28;20100;-71
2023/04/26 04:59:19;;;;;;;15.55;9.05;;;3.40;99.90;;;;;;2091598;28;20020;-71
2023/04/26 05:00:20;;;;;;;11.23;9.63;;;3.40;99.90;;;;;;2091405;28;20438;-71
2023/04/26 05:01:20;;;;;;;14.93;9.65;;;3.40;99.90;;;;;;2092566;28;20671;-71
2023/04/26 05:02:21;;;;;;;17.50;11.77;;;3.40;99.90;;;;;;2091839;28;20020;-71
2023/04/26 05:03:21;;;;;;;16.70;11.30;;;3.40;99.90;;;;;;2093084;28;20081;-71
2023/04/26 05:04:22;;;;;;;16.88;11.23;;;3.50;99.90;;;;;;2091145;28;20021;-71
2023/04/26 05:05:23;;;;;;;16.17;11.48;;;3.50;99.90;;;;;;2091782;28;20028;-71
2023/04/26 05:06:24;;;;;;;17.80;10.15;;;3.50;99.90;;;;;;2093590;28;20438;-71
2023/04/26 05:07:24;;;;;;;14.57;10.05;;;3.50;99.90;;;;;;2092956;28;20028;-71
2023/04/26 05:08:25;;;;;;;15.82;11.40;;;3.50;99.90;;;;;;2093354;28;20070;-71
2023/04/26 05:09:26;;;;;;;18.40;11.38;;;3.50;99.90;;;;;;2092993;28;20033;-71
2023/04/26 05:10:26;;;;;;;18.05;11.45;;;3.50;99.90;;;;;;2092668;28;20044;-71
2023/04/26 05:11:27;;;;;;;14.98;11.68;;;3.50;99.90;;;;;;2094318;28;20032;-71
2023/04/26 05:12:27;;;;;;;12.02;10.43;;;3.50;99.90;;;;;;2091548;28;20809;-71
2023/04/26 05:13:28;;;;;;;18.33;12.00;;;3.50;99.90;;;;;;2091327;28;20033;-71
2023/04/26 05:14:29;;;;;;;18.58;12.35;;;3.60;99.90;;;;;;2092535;28;20116;-71
2023/04/26 05:15:29;;;;;;;16.55;12.18;;;3.60;99.90;;;;;;2091640;28;20032;-71
2023/04/26 05:16:30;;;;;;;16.88;12.07;;;3.60;99.90;;;;;;2091534;28;20646;-71
2023/04/26 05:17:32;;;;;;;16.00;11.95;;;3.60;99.90;;;;;;2091716;28;20066;-71
2023/04/26 05:18:32;;;;;;;16.25;11.73;;;3.60;99.90;;;;;;2093112;28;20453;-71
2023/04/26 05:19:33;;;;;;;21.17;12.55;;;3.70;99.90;;;;;;2093384;28;20050;-71